Latest Weather Observations for Inverell RS

IDN60801

Issued at 10:42 am EDT Saturday 15 December 2018 (issued every 10 minutes, with the page automatically refreshed every 10 minutes)

About weather observations | Map of weather stations | Latest weather observations for NSW | Other Formats
Station Details ID: 056018 Name: INVERELL RESEARCH CENTRE Lat: -29.78 Lon: 151.08 Height: 664.0 m
Data from the previous 72 hours. | See also: Recent months at Inverell RS
Date/Time
EDT
Temp
°C
App
Temp
°C
Dew
Point
°C
Rel
Hum
%
Delta-T
°C
Wind Press
QNH
hPa
Press
MSL
hPa
Rain since
9am
mm
Dir  Spd
km/h
Gust
km/h
Spd
kts
Gust
kts
15/10:30am 26.2 23.7 16.2 54 6.3 N 24 39 13 21 1010.5 - 0.0
15/10:00am 25.9 24.3 16.5 56 6.0 N 20 33 11 18 1010.5 - 0.0
15/09:30am 24.8 22.6 16.0 58 5.5 N 22 33 12 18 1010.5 - 0.0
15/09:00am 24.3 24.6 17.8 67 4.2 N 13 20 7 11 1010.6 1007.3 1.2
15/08:30am 22.9 22.6 16.4 67 4.1 NE 13 17 7 9 1010.5 - 1.2
15/08:00am 21.9 21.9 17.1 74 3.0 NE 13 19 7 10 1010.1 - 1.2
15/07:30am 20.4 21.3 16.6 79 2.4 NNE 7 11 4 6 1009.9 - 1.2
15/07:00am 18.8 19.4 15.9 83 1.8 NNW 7 9 4 5 1009.6 - 1.2
15/06:30am 17.6 18.6 16.3 92 0.8 N 6 11 3 6 1009.0 - 1.2
15/06:00am 17.1 18.8 16.3 95 0.5 ENE 2 6 1 3 1008.7 1005.4 1.2
15/05:30am 17.6 19.5 16.6 94 0.6 ESE 2 7 1 4 1008.1 - 1.2
15/05:00am 17.8 19.4 17.0 95 0.5 S 4 7 2 4 1008.1 - 1.2
15/04:30am 17.3 18.3 16.8 97 0.3 SSW 7 7 4 4 1008.1 - 1.2
15/04:00am 17.6 18.8 17.3 98 0.2 S 7 9 4 5 1007.9 - 1.2
15/03:30am 17.7 20.1 17.1 96 0.4 CALM 0 0 0 0 1007.7 - 1.2
15/03:00am 17.8 20.1 16.7 93 0.7 CALM 0 2 0 1 1007.8 1004.4 1.2
15/02:30am 18.6 19.9 17.1 91 0.9 N 6 7 3 4 1007.9 - 1.2
15/02:00am 19.0 20.2 17.3 90 1.1 NW 7 9 4 5 1008.0 - 1.2
15/01:30am 18.8 21.2 17.1 90 1.1 CALM 0 6 0 3 1008.2 - 1.2
15/01:00am 19.1 20.0 16.7 86 1.5 WSW 7 9 4 5 1008.2 - 1.2
15/12:30am 19.5 20.7 16.9 85 1.6 W 6 9 3 5 1008.3 - 1.2
15/12:00am 20.9 21.3 17.3 80 2.3 WSW 11 15 6 8 1008.4 1005.1 1.2
 
Date/Time
EDT
Temp
°C
App
Temp
°C
Dew
Point
°C
Rel
Hum
%
Delta-T
°C
Wind Press
QNH
hPa
Press
MSL
hPa
Rain since
9am
mm
Dir  Spd
km/h
Gust
km/h
Spd
kts
Gust
kts
14/11:30pm 21.1 22.6 17.5 80 2.3 NNW 6 9 3 5 1008.5 - 1.2
14/11:00pm 21.4 22.8 17.8 80 2.3 N 7 9 4 5 1007.8 - 1.2
14/10:30pm 21.2 22.5 17.6 80 2.3 NNE 7 11 4 6 1007.4 - 1.2
14/10:00pm 21.9 23.0 17.9 78 2.6 N 9 13 5 7 1007.7 - 1.2
14/09:30pm 22.1 23.2 17.9 77 2.7 N 9 11 5 6 1007.3 - 1.2
14/09:00pm 22.3 22.9 17.7 75 2.9 N 11 13 6 7 1007.1 1003.8 1.2
14/08:30pm 22.4 22.9 17.5 74 3.1 N 11 15 6 8 1006.7 - 1.2
14/08:00pm 22.8 23.8 17.7 73 3.3 N 9 13 5 7 1006.2 - 1.2
14/07:30pm 23.4 24.3 17.6 70 3.7 N 9 11 5 6 1005.7 - 1.2
14/07:00pm 23.8 24.6 17.3 67 4.1 N 9 13 5 7 1005.3 - 1.2
14/06:30pm 23.7 24.7 17.7 69 3.8 N 9 13 5 7 1004.8 - 1.2
14/06:00pm 25.0 25.4 18.2 66 4.4 NNE 13 19 7 10 1004.7 1001.3 1.2
14/05:30pm 24.5 25.6 18.9 71 3.7 N 11 19 6 10 1004.9 - 1.2
14/05:00pm 24.0 25.3 19.3 75 3.1 N 11 17 6 9 1004.8 - 1.2
14/04:30pm 21.2 20.9 17.4 79 2.4 N 15 28 8 15 1005.1 - 1.2
14/04:00pm 22.8 22.8 19.0 79 2.5 N 17 30 9 16 1005.6 - 0.6
14/03:30pm 27.8 26.0 17.0 51 6.9 N 22 37 12 20 1004.8 - 0.2
14/03:00pm 27.1 26.0 17.3 55 6.3 N 19 26 10 14 1004.8 1001.4 0.2
14/02:30pm 27.2 27.0 17.7 56 6.2 NNW 15 24 8 13 1005.2 - 0.2
14/02:00pm 26.6 25.4 17.4 57 5.9 NW 20 33 11 18 1005.2 - 0.2
14/01:30pm 26.0 24.1 16.8 57 5.9 N 22 33 12 18 1005.6 - 0.2
14/01:00pm 26.1 23.5 16.9 57 5.9 N 26 37 14 20 1005.8 - 0.2
14/12:30pm 26.1 24.2 16.6 55 6.0 N 22 32 12 17 1005.8 - 0.2
14/12:00pm 26.7 24.4 16.6 54 6.4 N 24 35 13 19 1006.1 1002.7 0.2
14/11:30am 26.9 24.8 17.1 55 6.3 N 24 35 13 19 1006.2 - 0.2
14/11:00am 24.8 22.6 17.0 62 5.0 N 24 35 13 19 1006.3 - 0.2
14/10:30am 25.4 24.0 17.1 60 5.3 N 20 32 11 17 1006.3 - 0.2
14/10:00am 24.5 24.2 18.2 68 4.1 N 17 28 9 15 1006.3 - 0.0
14/09:30am 22.6 21.8 17.9 75 3.0 N 19 30 10 16 1006.5 - 0.0
14/09:00am 21.6 20.6 18.0 80 2.3 N 20 32 11 17 1006.6 1003.2 17.4
14/08:30am 21.3 21.2 18.7 85 1.7 N 17 26 9 14 1006.7 - 17.4
14/08:00am 20.3 21.0 18.8 91 1.0 N 13 17 7 9 1006.6 - 17.4
14/07:30am 19.9 20.6 18.9 94 0.6 N 13 17 7 9 1006.7 - 17.4
14/07:00am 19.3 20.5 19.0 98 0.2 N 11 17 6 9 1006.5 - 17.4
14/06:30am 18.4 19.6 18.2 99 0.1 N 9 11 5 6 1006.1 - 17.4
14/06:00am 18.2 18.5 17.9 98 0.2 N 13 20 7 11 1005.7 1002.4 17.4
14/05:30am 18.4 18.3 17.9 97 0.3 N 15 20 8 11 1005.4 - 17.4
14/05:00am 18.6 18.5 17.8 95 0.5 N 15 26 8 14 1005.3 - 17.4
14/04:30am 18.9 19.1 17.6 92 0.8 N 13 20 7 11 1005.2 - 17.4
14/04:00am 18.9 18.7 17.6 92 0.8 N 15 20 8 11 1004.9 - 17.4
14/03:30am 18.7 19.7 17.7 94 0.6 N 9 11 5 6 1004.9 - 17.4
14/03:00am 18.6 19.6 17.8 95 0.5 NE 9 11 5 6 1005.1 1001.7 17.4
14/02:30am 18.9 20.4 18.1 95 0.5 NNE 7 9 4 5 1005.4 - 16.8
14/02:00am 18.4 19.8 17.9 97 0.3 N 7 11 4 6 1005.4 - 16.8
14/01:30am 18.2 19.7 18.0 99 0.1 N 7 9 4 5 1005.4 - 16.8
14/01:00am 18.3 19.4 18.1 99 0.1 N 9 13 5 7 1005.6 - 16.8
14/12:30am 18.4 19.2 18.1 98 0.2 N 11 15 6 8 1005.8 - 16.8
14/12:00am 18.4 19.0 17.8 96 0.4 N 11 13 6 7 1006.6 1003.2 16.8
 
Date/Time
EDT
Temp
°C
App
Temp
°C
Dew
Point
°C
Rel
Hum
%
Delta-T
°C
Wind Press
QNH
hPa
Press
MSL
hPa
Rain since
9am
mm
Dir  Spd
km/h
Gust
km/h
Spd
kts
Gust
kts
13/11:30pm 18.4 19.8 17.8 96 0.4 N 7 9 4 5 1006.4 - 16.8
13/11:00pm 18.6 20.0 17.9 96 0.4 N 7 9 4 5 1006.9 - 16.8
13/10:30pm 18.5 19.9 17.7 95 0.5 N 7 11 4 6 1007.3 - 16.8
13/10:00pm 18.8 19.9 18.0 95 0.5 NNE 9 13 5 7 1007.3 - 16.8
13/09:30pm 18.6 20.0 17.9 96 0.4 NE 7 11 4 6 1007.1 - 16.8
13/09:00pm 18.7 19.8 18.0 96 0.4 NE 9 13 5 7 1007.2 1003.9 16.8
13/08:30pm 18.7 19.8 18.0 96 0.4 NE 9 15 5 8 1006.7 - 16.8
13/08:00pm 18.8 19.3 18.3 97 0.3 ENE 13 17 7 9 1006.2 - 16.8
13/07:30pm 18.9 20.6 18.6 98 0.2 NNE 7 11 4 6 1006.2 - 16.8
13/07:00pm 18.8 20.1 18.5 98 0.2 SSE 9 11 5 6 1005.3 - 16.8
13/06:30pm 18.6 19.0 18.1 97 0.3 S 13 20 7 11 1005.6 - 16.6
13/06:00pm 19.2 19.5 17.9 92 0.8 W 13 41 7 22 1006.9 1003.6 6.4
13/05:50pm 20.0 18.7 17.2 84 1.8 SSW 20 37 11 20 1005.5 - 1.6
13/05:30pm 25.0 25.7 17.0 61 5.1 W 9 15 5 8 1004.1 - 0.0
13/05:00pm 27.4 25.6 15.4 48 7.5 NNW 19 28 10 15 1003.4 - 0.0
13/04:30pm 28.5 26.1 15.4 45 8.2 NNW 22 30 12 16 1003.4 - 0.0
13/04:00pm 28.9 27.1 15.4 44 8.5 NNW 19 28 10 15 1003.9 - 0.0
13/03:30pm 29.2 27.0 16.0 44 8.4 N 22 33 12 18 1003.9 - 0.0
13/03:00pm 29.4 25.9 15.5 43 8.8 N 28 39 15 21 1005.0 1001.6 0.0
13/02:30pm 28.2 25.1 15.5 46 8.0 NNW 26 41 14 22 1006.3 - 0.0
13/02:00pm 28.6 26.9 15.8 45 8.1 N 19 28 10 15 1006.6 - 0.0
13/01:30pm 27.7 25.5 16.0 49 7.4 N 22 33 12 18 1007.4 - 0.0
13/01:00pm 27.3 24.6 15.6 48 7.3 NNW 24 37 13 20 1007.9 - 0.0
13/12:30pm 26.4 25.2 16.0 52 6.5 N 17 30 9 16 1007.9 - 0.0
13/12:00pm 27.8 26.1 17.3 52 6.8 N 22 37 12 20 1008.0 1004.6 0.0
13/11:30am 26.0 23.8 16.0 54 6.3 N 22 35 12 19 1008.3 - 0.0
13/11:00am 26.7 24.2 17.2 56 6.1 N 26 39 14 21 1008.5 - 0.0
13/10:30am 23.4 21.5 15.7 62 4.8 N 20 30 11 16 1009.3 - 0.0
13/10:00am 23.9 22.6 16.7 64 4.5 N 19 30 10 16 1009.4 - 0.0
13/09:30am 22.1 19.7 15.5 66 4.1 N 22 30 12 16 1010.1 - 0.0
13/09:00am 23.2 21.4 16.0 64 4.5 N 20 30 11 16 1010.3 1007.0 0.0
13/08:30am 21.3 19.5 15.4 69 3.6 N 19 28 10 15 1010.7 - 0.0
13/08:00am 20.8 18.8 14.9 69 3.6 N 19 28 10 15 1010.9 - 0.0
13/07:30am 21.2 20.0 15.1 68 3.7 N 15 26 8 14 1011.1 - 0.0
13/07:00am 19.4 18.5 14.9 75 2.7 N 13 19 7 10 1011.2 - 0.0
13/06:30am 18.8 18.5 14.5 76 2.6 N 9 13 5 7 1011.1 - 0.0
13/06:00am 18.7 18.0 14.2 75 2.7 N 11 15 6 8 1011.1 1007.8 0.0
13/05:30am 18.8 18.1 14.3 75 2.7 N 11 15 6 8 1011.0 - 0.0
13/05:00am 18.7 18.2 13.8 73 2.9 N 9 11 5 6 1010.4 - 0.0
13/04:30am 18.7 18.6 13.8 73 2.9 N 7 9 4 5 1010.3 - 0.0
13/04:00am 19.0 18.5 13.8 72 3.1 N 9 13 5 7 1010.2 - 0.0
13/03:30am 19.0 18.5 13.8 72 3.1 N 9 11 5 6 1010.3 - 0.0
13/03:00am 18.4 18.1 14.5 78 2.3 NNW 9 11 5 6 1010.5 1007.2 0.0
13/02:30am 18.4 18.7 14.5 78 2.3 NNE 6 7 3 4 1010.5 - 0.0
13/02:00am 18.8 19.0 14.7 77 2.5 NNE 7 11 4 6 1011.0 - 0.0
13/01:30am 18.7 19.0 15.0 79 2.2 ENE 7 11 4 6 1011.6 - 0.0
13/01:00am 18.5 18.9 15.2 81 2.0 E 7 11 4 6 1011.9 - 0.0
13/12:30am 18.5 18.5 15.2 81 2.0 E 9 11 5 6 1012.0 - 0.0
13/12:00am 18.9 18.9 15.2 79 2.2 E 9 11 5 6 1012.2 1009.0 0.0
 
Date/Time
EDT
Temp
°C
App
Temp
°C
Dew
Point
°C
Rel
Hum
%
Delta-T
°C
Wind Press
QNH
hPa
Press
MSL
hPa
Rain since
9am
mm
Dir  Spd
km/h
Gust
km/h
Spd
kts
Gust
kts
12/11:30pm 19.1 19.5 15.2 78 2.4 ENE 7 9 4 5 1012.5 - 0.0
12/11:00pm 19.4 19.5 15.5 78 2.4 NE 9 13 5 7 1012.2 - 0.0
12/10:30pm 19.4 19.0 15.3 77 2.5 ESE 11 15 6 8 1012.3 - 0.0
12/10:00pm 20.2 19.5 15.4 74 2.9 E 13 17 7 9 1012.7 - 0.0
12/09:30pm 20.3 19.5 15.1 72 3.2 E 13 19 7 10 1012.6 - 0.0
12/09:00pm 20.8 21.0 15.8 73 3.1 E 9 15 5 8 1012.3 1009.1 0.0
12/08:30pm 20.9 20.9 15.2 70 3.5 E 9 13 5 7 1012.0 - 0.0
12/08:00pm 21.4 20.9 15.0 67 3.9 E 11 15 6 8 1011.9 - 0.0
12/07:30pm 21.7 21.0 15.5 68 3.8 E 13 17 7 9 1012.2 - 0.0
12/07:00pm 22.1 21.5 15.7 67 3.9 E 13 17 7 9 1012.2 - 0.0
12/06:30pm 22.3 22.2 16.1 68 3.9 ESE 11 15 6 8 1012.0 - 0.0
12/06:00pm 23.1 21.9 16.2 65 4.3 ESE 17 24 9 13 1011.9 1008.6 0.0
12/05:30pm 22.9 22.4 16.0 65 4.3 ESE 13 19 7 10 1012.2 - 0.0
12/05:00pm 25.4 24.6 13.9 49 7.0 SSE 11 20 6 11 1011.8 - 0.0
12/04:30pm 26.6 25.6 13.3 43 8.0 W 11 22 6 12 1011.7 - 0.0
12/04:00pm 28.0 25.3 12.8 39 9.2 NW 19 32 10 17 1011.3 - 0.0
12/03:30pm 28.1 24.9 12.0 36 9.6 WNW 20 39 11 21 1011.6 - 0.0
12/03:00pm 29.4 27.5 11.9 34 10.5 NNW 13 19 7 10 1011.9 1008.6 0.0
12/02:30pm 28.8 27.5 11.4 34 10.3 WNW 9 13 5 7 1012.2 - 0.0
12/02:00pm 29.7 27.9 12.2 34 10.5 NW 13 24 7 13 1012.7 - 0.0
12/01:30pm 29.0 27.0 11.6 34 10.3 NNE 13 24 7 13 1013.3 - 0.0
12/01:00pm 29.7 27.9 12.2 34 10.5 NW 13 24 7 13 1013.9 - 0.0
12/12:30pm 28.5 27.0 12.0 36 9.8 N 11 17 6 9 1014.5 - 0.0
12/12:00pm 28.2 26.9 12.5 37 9.4 NE 11 17 6 9 1014.9 1011.7 0.0
12/11:30am 27.5 26.5 12.3 39 9.1 NW 9 19 5 10 1015.2 - 0.0
12/11:00am 25.8 24.1 12.3 43 8.0 N 13 19 7 10 1015.6 - 0.0

Other Formats:

Comma delimited format used in spreadsheet applications
http://www.bom.gov.au/fwo/IDN60801/IDN60801.94541.axf

JavaScript Object Notation format (JSON) in row-major order
http://www.bom.gov.au/fwo/IDN60801/IDN60801.94541.json